createdAt,value
2022-11-04T00:02:03.305Z,16.00
2022-11-04T00:04:32.160Z,16.30
2022-11-04T00:07:00.467Z,17.00
2022-11-04T00:09:29.439Z,19.00
2022-11-04T00:12:16.992Z,17.30
2022-11-04T00:14:45.238Z,12.60
2022-11-04T00:17:19.823Z,15.00
2022-11-04T00:20:08.694Z,15.60
2022-11-04T00:22:56.138Z,18.10
2022-11-04T00:25:43.280Z,18.20
2022-11-04T00:28:31.882Z,18.60
2022-11-04T00:31:19.630Z,13.20
2022-11-04T00:33:49.070Z,17.00
2022-11-04T00:36:17.547Z,11.50
2022-11-04T00:38:46.103Z,18.00
2022-11-04T00:41:27.362Z,14.70
2022-11-04T00:43:57.452Z,14.70
2022-11-04T00:46:26.362Z,13.30
2022-11-04T00:48:54.863Z,17.80
2022-11-04T00:51:23.707Z,12.60
2022-11-04T00:53:52.532Z,15.90
2022-11-04T00:56:20.927Z,14.60
2022-11-04T00:58:50.546Z,14.90
2022-11-04T01:01:19.746Z,15.00
2022-11-04T01:03:49.978Z,15.80
2022-11-04T01:06:18.958Z,13.70
2022-11-04T01:08:48.020Z,14.80
2022-11-04T01:11:17.166Z,17.90
2022-11-04T01:13:45.541Z,15.40
2022-11-04T01:16:14.016Z,12.90
2022-11-04T01:18:42.509Z,15.90
2022-11-04T01:21:13.225Z,14.50
2022-11-04T01:23:42.709Z,19.00
2022-11-04T01:26:15.373Z,19.90
2022-11-04T01:28:43.674Z,15.70
2022-11-04T01:31:13.740Z,21.00
2022-11-04T01:33:42.155Z,20.60
2022-11-04T01:36:11.049Z,15.00
2022-11-04T01:38:39.434Z,12.80
2022-11-04T01:41:08.453Z,15.10
2022-11-04T01:44:02.633Z,15.50
2022-11-04T01:46:47.894Z,13.70
2022-11-04T01:49:19.403Z,15.90
2022-11-04T01:51:50.064Z,17.30
2022-11-04T01:54:18.858Z,12.20
2022-11-04T01:56:47.784Z,16.90
2022-11-04T01:59:21.530Z,12.50
2022-11-04T02:01:49.927Z,17.10
2022-11-04T02:04:27.634Z,17.30
2022-11-04T02:06:57.633Z,13.60
2022-11-04T02:09:27.578Z,15.20
2022-11-04T02:12:15.195Z,13.60
2022-11-04T02:14:43.736Z,16.10
2022-11-04T02:17:17.995Z,15.40
2022-11-04T02:19:58.086Z,14.10
2022-11-04T02:22:41.581Z,12.90
2022-11-04T02:25:31.829Z,18.60
2022-11-04T02:28:15.536Z,14.80
2022-11-04T02:30:55.452Z,16.70
2022-11-04T02:33:33.094Z,16.10
2022-11-04T02:36:09.115Z,16.90
2022-11-04T02:38:46.719Z,15.50
2022-11-04T02:41:33.911Z,17.50
2022-11-04T02:44:18.515Z,14.50
2022-11-04T02:46:52.251Z,16.70
2022-11-04T02:49:30.265Z,13.80
2022-11-04T02:51:58.456Z,14.70
2022-11-04T02:54:34.197Z,15.30
2022-11-04T02:57:04.099Z,17.80
2022-11-04T02:59:35.635Z,15.00
2022-11-04T03:02:05.639Z,14.70
2022-11-04T03:04:36.813Z,15.30
2022-11-04T03:07:07.919Z,18.40
2022-11-04T03:09:37.912Z,15.80
2022-11-04T03:12:15.194Z,16.50
2022-11-04T03:14:47.735Z,13.70
2022-11-04T03:17:19.819Z,17.20
2022-11-04T03:19:53.413Z,14.20
2022-11-04T03:22:23.471Z,16.10
2022-11-04T03:24:52.510Z,14.80
2022-11-04T03:27:43.915Z,14.30
2022-11-04T03:30:15.140Z,15.20
2022-11-04T03:33:01.918Z,17.10
2022-11-04T03:35:30.817Z,16.80
2022-11-04T03:37:59.389Z,17.30
2022-11-04T03:40:28.618Z,15.90
2022-11-04T03:43:00.068Z,15.20
2022-11-04T03:45:28.451Z,15.30
2022-11-04T03:47:57.131Z,15.90
2022-11-04T03:50:42.243Z,15.60
2022-11-04T03:53:12.443Z,17.70
2022-11-04T03:56:00.208Z,17.10
2022-11-04T03:58:46.880Z,16.60
2022-11-04T04:01:36.661Z,13.90
2022-11-04T04:04:12.772Z,17.20
2022-11-04T04:06:42.044Z,14.80
2022-11-04T04:09:18.449Z,16.80
2022-11-04T04:11:52.378Z,16.40
2022-11-04T04:14:40.255Z,13.90
2022-11-04T04:17:30.079Z,13.40
2022-11-04T04:20:03.754Z,16.80
2022-11-04T04:22:35.115Z,17.30
2022-11-04T04:25:24.629Z,16.60
2022-11-04T04:27:54.202Z,16.10
2022-11-04T04:30:22.484Z,18.70
2022-11-04T04:32:53.179Z,17.90
2022-11-04T04:35:43.556Z,15.70
2022-11-04T04:38:40.839Z,16.50
2022-11-04T04:41:38.796Z,13.30
2022-11-04T04:44:46.041Z,16.30
2022-11-04T04:47:20.379Z,22.40
2022-11-04T04:49:51.705Z,17.70
2022-11-04T04:52:20.657Z,16.30
2022-11-04T04:54:49.035Z,15.80
2022-11-04T04:57:17.532Z,16.30
2022-11-04T04:59:45.757Z,17.70
2022-11-04T05:02:14.293Z,20.40
2022-11-04T05:04:42.619Z,15.60
2022-11-04T05:07:11.028Z,13.40
2022-11-04T05:09:39.286Z,16.00
2022-11-04T05:12:07.969Z,15.90
2022-11-04T05:14:36.359Z,17.90
2022-11-04T05:17:04.619Z,16.40
2022-11-04T05:19:32.996Z,14.70
2022-11-04T05:22:01.401Z,15.30
2022-11-04T05:24:29.679Z,17.40
2022-11-04T05:26:58.033Z,17.00
2022-11-04T05:29:26.370Z,18.00
2022-11-04T05:31:54.618Z,17.40
2022-11-04T05:34:23.016Z,15.30
2022-11-04T05:36:51.292Z,15.70
2022-11-04T05:39:19.656Z,14.60
2022-11-04T05:41:47.988Z,16.80
2022-11-04T05:44:16.397Z,19.00
2022-11-04T05:46:44.739Z,17.60
2022-11-04T05:49:13.131Z,16.60
2022-11-04T05:51:41.551Z,15.80
2022-11-04T05:54:09.797Z,18.00
2022-11-04T05:56:38.240Z,15.80
2022-11-04T05:59:06.569Z,14.40
2022-11-04T06:01:39.417Z,17.10
2022-11-04T06:04:14.467Z,15.20
2022-11-04T06:06:42.866Z,19.50
2022-11-04T06:09:11.372Z,18.30
2022-11-04T06:11:39.894Z,15.80
2022-11-04T06:14:08.218Z,20.40
2022-11-04T06:16:36.420Z,17.50
2022-11-04T06:19:09.537Z,19.80
2022-11-04T06:21:39.070Z,18.30
2022-11-04T06:24:08.399Z,17.40
2022-11-04T06:26:36.705Z,20.40
2022-11-04T06:29:05.033Z,22.10
2022-11-04T06:31:33.315Z,16.40
2022-11-04T06:34:01.836Z,23.50
2022-11-04T06:36:30.456Z,20.30
2022-11-04T06:39:04.456Z,18.30
2022-11-04T06:41:33.399Z,16.70
2022-11-04T06:44:01.845Z,15.80
2022-11-04T06:46:34.094Z,18.30
2022-11-04T06:49:02.584Z,18.80
2022-11-04T06:51:30.919Z,16.30
2022-11-04T06:53:59.292Z,15.50
2022-11-04T06:56:27.606Z,13.70
2022-11-04T06:58:56.284Z,19.60
2022-11-04T07:01:26.305Z,16.40
2022-11-04T07:03:55.893Z,15.70
2022-11-04T07:06:24.983Z,18.30
2022-11-04T07:08:54.050Z,14.30
2022-11-04T07:11:23.012Z,19.00
2022-11-04T07:13:51.381Z,16.00
2022-11-04T07:16:19.649Z,14.40
2022-11-04T07:18:49.539Z,14.80
2022-11-04T07:21:18.747Z,18.50
2022-11-04T07:23:46.995Z,16.30
2022-11-04T07:26:15.526Z,13.60
2022-11-04T07:28:44.026Z,14.50
2022-11-04T07:31:13.132Z,14.60
2022-11-04T07:33:41.454Z,15.50
2022-11-04T07:36:12.184Z,16.90
2022-11-04T07:38:40.550Z,13.80
2022-11-04T07:41:08.955Z,17.30
2022-11-04T07:43:37.487Z,15.80
2022-11-04T07:46:07.747Z,15.70
2022-11-04T07:48:37.064Z,13.60
2022-11-04T07:51:06.635Z,14.40
2022-11-04T07:53:35.690Z,14.30
2022-11-04T07:56:05.191Z,15.10
2022-11-04T07:58:34.480Z,13.60
2022-11-04T08:01:04.246Z,16.20
2022-11-04T08:03:37.127Z,14.80
2022-11-04T08:06:06.732Z,14.10
2022-11-04T08:08:35.252Z,12.50
2022-11-04T08:11:05.594Z,13.00
2022-11-04T08:13:36.591Z,14.60
2022-11-04T08:16:06.910Z,14.10
2022-11-04T08:18:35.260Z,12.60
2022-11-04T08:21:04.592Z,14.00
2022-11-04T08:23:33.792Z,16.30
2022-11-04T08:26:02.276Z,13.60
2022-11-04T08:28:30.610Z,14.40
2022-11-04T08:31:00.452Z,15.70
2022-11-04T08:33:29.778Z,14.40
2022-11-04T08:36:02.972Z,14.90
2022-11-04T08:38:32.044Z,14.70
2022-11-04T08:41:01.207Z,17.00
2022-11-04T08:43:29.589Z,17.20
2022-11-04T08:45:58.742Z,16.50
2022-11-04T08:48:29.705Z,16.50
2022-11-04T08:51:01.772Z,15.70
2022-11-04T08:53:30.059Z,18.50
2022-11-04T08:55:59.483Z,15.40
2022-11-04T08:58:27.829Z,14.10
2022-11-04T09:00:56.146Z,15.30
2022-11-04T09:03:24.476Z,18.70
2022-11-04T09:05:52.824Z,20.20
2022-11-04T09:08:21.532Z,14.60
2022-11-04T09:10:50.036Z,20.10
2022-11-04T09:13:18.347Z,17.70
2022-11-04T09:15:49.160Z,16.50
2022-11-04T09:18:17.609Z,14.60
2022-11-04T09:20:46.048Z,14.60
2022-11-04T09:23:14.260Z,15.20
2022-11-04T09:25:42.606Z,15.90
2022-11-04T09:28:10.857Z,18.90
2022-11-04T09:30:39.350Z,16.10
2022-11-04T09:33:07.796Z,16.80
2022-11-04T09:35:36.742Z,16.20
2022-11-04T09:38:05.188Z,17.10
2022-11-04T09:40:35.868Z,15.40
2022-11-04T09:43:19.314Z,15.80
2022-11-04T09:45:47.661Z,14.80
2022-11-04T09:48:28.710Z,18.60
2022-11-04T09:50:59.120Z,15.70
2022-11-04T09:53:31.572Z,15.90
2022-11-04T09:56:20.116Z,15.20
2022-11-04T09:58:49.906Z,17.80
2022-11-04T10:01:18.399Z,16.60
2022-11-04T10:03:52.890Z,16.70
2022-11-04T10:06:27.110Z,20.20
2022-11-04T10:08:55.449Z,19.60
2022-11-04T10:11:23.754Z,17.90
2022-11-04T10:14:01.224Z,17.40
2022-11-04T10:16:49.583Z,16.40
2022-11-04T10:19:36.974Z,20.90
2022-11-04T10:22:05.445Z,16.50
2022-11-04T10:24:33.719Z,16.10
2022-11-04T10:27:06.636Z,17.10
2022-11-04T10:29:41.641Z,17.80
2022-11-04T10:32:33.140Z,18.20
2022-11-04T10:35:10.848Z,15.30
2022-11-04T10:37:39.330Z,16.90
2022-11-04T10:40:46.450Z,18.70
2022-11-04T10:43:17.267Z,16.10
2022-11-04T10:45:48.645Z,17.90
2022-11-04T10:48:20.657Z,15.90
2022-11-04T10:50:49.123Z,17.50
2022-11-04T10:53:24.542Z,14.30
2022-11-04T10:56:02.161Z,18.70
2022-11-04T10:58:32.396Z,13.60
2022-11-04T11:01:20.742Z,20.80
2022-11-04T11:03:49.107Z,16.60
2022-11-04T11:06:26.567Z,17.50
2022-11-04T11:08:57.135Z,16.00
2022-11-04T11:11:39.150Z,17.40
2022-11-04T11:14:18.188Z,16.00
2022-11-04T11:16:46.689Z,18.60
2022-11-04T11:19:17.832Z,17.20
2022-11-04T11:21:46.457Z,19.30
2022-11-04T11:24:20.912Z,18.40
2022-11-04T11:26:53.289Z,20.10
2022-11-04T11:29:24.629Z,17.60
2022-11-04T11:31:54.834Z,17.80
2022-11-04T11:34:26.860Z,19.30
2022-11-04T11:36:56.481Z,14.80
2022-11-04T11:39:28.306Z,17.50
2022-11-04T11:41:58.511Z,21.40
2022-11-04T11:44:48.160Z,16.80
2022-11-04T11:47:25.451Z,17.20
2022-11-04T11:50:07.844Z,18.00
2022-11-04T11:52:40.123Z,19.00
2022-11-04T11:55:18.119Z,15.50
2022-11-04T12:00:48.515Z,21.00
2022-11-04T12:06:30.341Z,19.70
2022-11-04T12:11:44.582Z,17.60
2022-11-04T12:14:26.143Z,17.60
2022-11-04T12:17:00.580Z,20.00
2022-11-04T12:19:40.713Z,17.80
2022-11-04T12:22:18.313Z,19.30
2022-11-04T12:24:58.898Z,16.20
2022-11-04T12:27:36.677Z,16.70
2022-11-04T12:30:07.235Z,17.80
2022-11-04T12:32:50.793Z,18.20
2022-11-04T12:35:34.522Z,17.70
2022-11-04T12:38:12.092Z,22.00
2022-11-04T12:41:26.247Z,23.10
2022-11-04T12:43:49.764Z,17.40
2022-11-04T12:46:26.119Z,18.40
2022-11-04T12:49:16.410Z,16.80
2022-11-04T12:51:55.386Z,24.30
2022-11-04T12:54:23.996Z,17.80
2022-11-04T12:56:58.524Z,20.00
2022-11-04T12:59:39.375Z,20.20
2022-11-04T13:02:14.870Z,20.20
2022-11-04T13:04:59.508Z,20.30
2022-11-04T13:07:40.780Z,212.00
2022-11-04T13:10:18.106Z,51.50
2022-11-04T13:12:47.697Z,19.90
2022-11-04T13:15:23.728Z,30.30
2022-11-04T13:18:04.001Z,24.40
2022-11-04T13:20:35.960Z,23.40
2022-11-04T13:23:06.168Z,22.40
2022-11-04T13:25:37.747Z,21.40
2022-11-04T13:28:09.237Z,22.70
2022-11-04T13:30:52.133Z,20.30
2022-11-04T13:33:23.657Z,21.30
2022-11-04T13:35:51.933Z,19.90
2022-11-04T13:38:22.937Z,20.70
2022-11-04T13:41:16.234Z,20.70
2022-11-04T13:43:59.566Z,20.10
2022-11-04T13:46:32.385Z,20.90
2022-11-04T13:49:12.733Z,20.10
2022-11-04T13:51:44.845Z,21.40
2022-11-04T13:54:33.547Z,21.20
2022-11-04T13:57:12.955Z,21.70
2022-11-04T13:59:41.815Z,21.40
2022-11-04T14:02:12.945Z,19.90
2022-11-04T14:04:43.017Z,19.20
2022-11-04T14:07:18.135Z,22.00
2022-11-04T14:09:54.124Z,25.20
2022-11-04T14:12:30.458Z,20.60
2022-11-04T14:15:17.332Z,16.70
2022-11-04T14:17:45.761Z,22.40
2022-11-04T14:20:47.203Z,23.50
2022-11-04T14:23:23.142Z,22.30
2022-11-04T14:26:03.475Z,28.50
2022-11-04T14:28:32.714Z,23.10
2022-11-04T14:31:23.986Z,27.10
2022-11-04T14:33:54.116Z,22.90
2022-11-04T14:36:25.652Z,21.60
2022-11-04T14:39:05.217Z,26.10
2022-11-04T14:41:34.581Z,22.60
2022-11-04T14:44:07.462Z,23.70
2022-11-04T14:46:40.792Z,23.80
2022-11-04T14:49:24.516Z,28.10
2022-11-04T14:51:54.741Z,28.00
2022-11-04T14:54:27.738Z,27.30
2022-11-04T14:57:07.675Z,27.70
2022-11-04T14:59:37.045Z,26.70
2022-11-04T15:02:09.853Z,24.90
2022-11-04T15:04:38.684Z,27.40
2022-11-04T15:07:07.055Z,25.30
2022-11-04T15:09:41.146Z,28.00
2022-11-04T15:14:57.421Z,28.50
2022-11-04T15:17:28.722Z,26.60
2022-11-04T15:19:58.845Z,31.50
2022-11-04T15:22:28.688Z,33.20
2022-11-04T15:24:59.013Z,25.70
2022-11-04T15:27:29.503Z,26.70
2022-11-04T15:29:59.760Z,23.20
2022-11-04T15:32:28.522Z,27.00
2022-11-04T15:34:57.870Z,26.20
2022-11-04T15:37:26.931Z,28.90
2022-11-04T15:39:56.988Z,28.30
2022-11-04T15:42:44.947Z,26.80
2022-11-04T15:45:35.532Z,24.50
2022-11-04T15:48:23.227Z,29.70
2022-11-04T15:51:04.113Z,28.50
2022-11-04T15:53:35.542Z,27.90
2022-11-04T15:56:04.357Z,24.60
2022-11-04T15:58:34.425Z,27.30
2022-11-04T16:01:03.127Z,26.90
2022-11-04T16:03:31.568Z,30.70
2022-11-04T16:06:02.357Z,27.90
2022-11-04T16:08:32.422Z,25.30
2022-11-04T16:11:12.220Z,29.10
2022-11-04T16:13:42.494Z,28.90
2022-11-04T16:16:17.332Z,28.20
2022-11-04T16:18:51.292Z,31.80
2022-11-04T16:21:30.892Z,29.90
2022-11-04T16:24:03.332Z,33.30
2022-11-04T16:26:38.210Z,38.50
2022-11-04T16:29:11.819Z,36.80
2022-11-04T16:31:40.335Z,36.90
2022-11-04T16:34:12.072Z,29.10
2022-11-04T16:36:41.814Z,30.00
2022-11-04T16:39:10.324Z,27.50
2022-11-04T16:41:40.641Z,28.70
2022-11-04T16:44:35.875Z,29.20
2022-11-04T16:47:05.243Z,27.90
2022-11-04T16:49:34.028Z,28.80
2022-11-04T16:52:06.110Z,30.20
2022-11-04T16:54:34.945Z,27.60
2022-11-04T16:57:07.159Z,30.70
2022-11-04T16:59:36.631Z,26.70
2022-11-04T17:02:17.088Z,29.70
2022-11-04T17:04:47.095Z,32.10
2022-11-04T17:07:16.039Z,30.80
2022-11-04T17:09:44.474Z,31.00
2022-11-04T17:12:13.649Z,33.40
2022-11-04T17:14:43.199Z,32.20
2022-11-04T17:17:13.248Z,31.70
2022-11-04T17:19:42.319Z,27.70
2022-11-04T17:22:12.009Z,32.70
2022-11-04T17:24:41.495Z,37.10
2022-11-04T17:27:10.870Z,36.20
2022-11-04T17:29:40.340Z,32.80
2022-11-04T17:32:10.647Z,35.20
2022-11-04T17:34:39.347Z,35.50
2022-11-04T17:37:09.791Z,37.50
2022-11-04T17:39:39.524Z,38.00
2022-11-04T17:42:27.332Z,29.20
2022-11-04T17:44:56.748Z,37.70
2022-11-04T17:47:25.742Z,31.40
2022-11-04T17:49:54.414Z,33.30
2022-11-04T17:52:25.587Z,32.80
2022-11-04T17:54:54.100Z,31.60
2022-11-04T17:57:22.678Z,34.40
2022-11-04T17:59:51.748Z,33.30
2022-11-04T18:02:20.783Z,33.20
2022-11-04T18:04:49.291Z,30.50
2022-11-04T18:07:18.244Z,33.60
2022-11-04T18:09:47.777Z,118.50
2022-11-04T18:12:34.830Z,57.50
2022-11-04T18:15:09.349Z,43.40
2022-11-04T18:20:13.579Z,37.20
2022-11-04T18:22:44.065Z,36.80
2022-11-04T18:25:13.774Z,43.90
2022-11-04T18:27:43.043Z,47.30
2022-11-04T18:30:14.060Z,44.80
2022-11-04T18:32:43.214Z,40.50
2022-11-04T18:35:16.341Z,46.10
2022-11-04T18:37:47.550Z,38.00
2022-11-04T18:40:18.137Z,38.40
2022-11-04T18:42:48.046Z,38.80
2022-11-04T18:45:18.782Z,37.50
2022-11-04T18:47:50.373Z,32.50
2022-11-04T18:50:19.596Z,40.50
2022-11-04T18:52:49.886Z,44.20
2022-11-04T18:55:19.457Z,43.00
2022-11-04T18:57:50.088Z,52.00
2022-11-04T19:00:19.530Z,46.60
2022-11-04T19:02:49.308Z,44.70
2022-11-04T19:05:19.057Z,40.90
2022-11-04T19:07:48.166Z,40.80
2022-11-04T19:10:18.111Z,41.00
2022-11-04T19:13:06.695Z,85.40
2022-11-04T19:15:38.980Z,50.80
2022-11-04T19:18:08.485Z,57.50
2022-11-04T19:20:44.796Z,50.40
2022-11-04T19:23:14.379Z,87.80
2022-11-04T19:25:44.297Z,47.20
2022-11-04T19:28:37.142Z,55.00
2022-11-04T19:31:04.097Z,40.10
2022-11-04T19:33:35.004Z,42.30
2022-11-04T19:36:05.576Z,40.80
2022-11-04T19:38:35.085Z,43.10
2022-11-04T19:41:29.167Z,48.30
2022-11-04T19:44:02.157Z,43.70
2022-11-04T19:46:32.065Z,50.60
2022-11-04T19:49:02.599Z,47.40
2022-11-04T19:51:32.373Z,49.50
2022-11-04T19:54:03.164Z,43.50
2022-11-04T19:56:34.450Z,39.50
2022-11-04T19:59:06.215Z,42.30
2022-11-04T20:01:36.563Z,41.30
2022-11-04T20:04:07.246Z,44.20
2022-11-04T20:06:37.481Z,46.40
2022-11-04T20:09:08.308Z,51.90
2022-11-04T20:12:01.643Z,60.40
2022-11-04T20:14:30.544Z,52.20
2022-11-04T20:17:00.057Z,44.60
2022-11-04T20:19:29.121Z,40.40
2022-11-04T20:21:58.870Z,63.20
2022-11-04T20:24:29.266Z,47.60
2022-11-04T20:26:58.020Z,43.10
2022-11-04T20:29:29.038Z,56.50
2022-11-04T20:31:59.911Z,52.60
2022-11-04T20:34:32.775Z,56.00
2022-11-04T20:37:02.649Z,49.20
2022-11-04T20:39:31.994Z,47.70
2022-11-04T20:42:01.904Z,44.50
2022-11-04T20:44:31.605Z,46.40
2022-11-04T20:47:01.870Z,49.50
2022-11-04T20:49:30.912Z,64.50
2022-11-04T20:52:00.006Z,57.70
2022-11-04T20:54:29.765Z,46.20
2022-11-04T20:56:58.483Z,49.90
2022-11-04T20:59:28.012Z,42.40
2022-11-04T21:01:57.888Z,45.60
2022-11-04T21:04:33.237Z,40.00
2022-11-04T21:07:05.218Z,45.90
2022-11-04T21:09:34.206Z,42.50
2022-11-04T21:12:04.342Z,42.10
2022-11-04T21:14:35.451Z,40.70
2022-11-04T21:17:06.836Z,41.90
2022-11-04T21:19:36.281Z,43.00
2022-11-04T21:22:04.658Z,42.50
2022-11-04T21:24:39.254Z,47.30
2022-11-04T21:27:08.741Z,50.50
2022-11-04T21:29:37.243Z,51.00
2022-11-04T21:32:05.913Z,45.80
2022-11-04T21:34:35.437Z,53.20
2022-11-04T21:37:04.696Z,49.40
2022-11-04T21:39:34.326Z,48.90
2022-11-04T21:42:03.420Z,47.40
2022-11-04T21:44:32.395Z,49.30
2022-11-04T21:47:00.732Z,50.60
2022-11-04T21:49:29.671Z,51.10
2022-11-04T21:51:58.568Z,46.60
2022-11-04T21:54:27.685Z,48.30
2022-11-04T21:56:55.970Z,47.10
2022-11-04T21:59:24.267Z,42.60
2022-11-04T22:01:53.338Z,43.90
2022-11-04T22:04:21.864Z,44.10
2022-11-04T22:06:50.371Z,42.90
2022-11-04T22:09:18.672Z,49.70
2022-11-04T22:11:47.011Z,47.10
2022-11-04T22:14:15.370Z,42.30
2022-11-04T22:16:43.631Z,43.40
2022-11-04T22:19:13.873Z,40.50
2022-11-04T22:21:43.981Z,44.70
2022-11-04T22:24:13.455Z,39.60
2022-11-04T22:26:42.447Z,43.60
2022-11-04T22:29:10.874Z,39.80
2022-11-04T22:31:41.142Z,41.10
2022-11-04T22:34:10.186Z,38.70
2022-11-04T22:36:38.884Z,38.10
2022-11-04T22:39:11.852Z,44.40
2022-11-04T22:41:41.980Z,44.00
2022-11-04T22:44:10.537Z,42.30
2022-11-04T22:46:39.800Z,50.10
2022-11-04T22:49:08.119Z,40.30
2022-11-04T22:51:36.453Z,44.00
2022-11-04T22:54:08.305Z,39.80
2022-11-04T22:56:37.435Z,38.10
2022-11-04T22:59:06.388Z,37.70
2022-11-04T23:01:34.844Z,42.40
2022-11-04T23:04:03.862Z,44.70
2022-11-04T23:06:32.181Z,37.90
2022-11-04T23:09:01.212Z,43.90
2022-11-04T23:11:49.443Z,49.10
2022-11-04T23:14:38.327Z,47.10
2022-11-04T23:17:36.495Z,42.60
2022-11-04T23:20:06.362Z,37.50
2022-11-04T23:22:53.397Z,39.80
2022-11-04T23:25:21.968Z,35.00
2022-11-04T23:28:10.288Z,32.10
2022-11-04T23:30:40.364Z,32.20
2022-11-04T23:33:10.358Z,35.90
2022-11-04T23:35:59.411Z,35.30
2022-11-04T23:38:29.941Z,36.10
2022-11-04T23:41:18.502Z,33.20
2022-11-04T23:43:47.069Z,33.50
2022-11-04T23:46:39.374Z,32.50
2022-11-04T23:49:32.567Z,33.60
2022-11-04T23:52:19.771Z,30.70
2022-11-04T23:55:06.578Z,34.00
2022-11-04T23:57:54.058Z,33.30
